createdAt,value
2018-01-11T00:00:08.678Z,6.95
2018-01-11T00:02:36.185Z,7.30
2018-01-11T00:05:03.698Z,9.02
2018-01-11T00:07:31.381Z,8.32
2018-01-11T00:09:58.921Z,7.22
2018-01-11T00:12:26.488Z,10.68
2018-01-11T00:14:54.216Z,9.60
2018-01-11T00:17:22.357Z,8.82
2018-01-11T00:19:49.872Z,8.20
2018-01-11T00:22:17.433Z,7.32
2018-01-11T00:24:44.992Z,7.95
2018-01-11T00:27:12.495Z,7.47
2018-01-11T00:29:40.314Z,6.90
2018-01-11T00:32:07.822Z,7.00
2018-01-11T00:34:35.333Z,7.10
2018-01-11T00:37:03.179Z,8.48
2018-01-11T00:39:30.777Z,7.40
2018-01-11T00:41:58.289Z,7.50
2018-01-11T00:44:25.874Z,8.15
2018-01-11T00:46:53.442Z,6.05
2018-01-11T00:49:21.004Z,6.75
2018-01-11T00:51:48.552Z,6.93
2018-01-11T00:54:16.314Z,7.53
2018-01-11T00:56:43.885Z,6.62
2018-01-11T00:59:11.399Z,7.65
2018-01-11T01:01:38.940Z,6.90
2018-01-11T01:04:06.450Z,6.70
2018-01-11T01:06:33.957Z,7.40
2018-01-11T01:09:01.494Z,6.70
2018-01-11T01:11:29.024Z,9.10
2018-01-11T01:13:56.682Z,6.35
2018-01-11T01:16:24.186Z,6.15
2018-01-11T01:18:51.699Z,5.32
2018-01-11T01:21:19.233Z,5.07
2018-01-11T01:23:46.765Z,5.75
2018-01-11T01:26:14.505Z,5.00
2018-01-11T01:28:42.041Z,5.55
2018-01-11T01:31:09.550Z,5.53
2018-01-11T01:33:37.193Z,5.55
2018-01-11T01:36:04.697Z,5.35
2018-01-11T01:38:32.205Z,5.45
2018-01-11T01:40:59.750Z,4.72
2018-01-11T01:43:27.262Z,6.12
2018-01-11T01:45:54.778Z,5.47
2018-01-11T01:48:34.261Z,5.30
2018-01-11T01:51:01.774Z,4.87
2018-01-11T01:53:29.306Z,5.43
2018-01-11T01:55:57.148Z,5.78
2018-01-11T01:58:24.651Z,6.12
2018-01-11T02:00:52.185Z,6.57
2018-01-11T02:03:19.950Z,6.45
2018-01-11T02:05:47.515Z,5.90
2018-01-11T02:08:15.180Z,7.00
2018-01-11T02:10:42.747Z,6.37
2018-01-11T02:13:10.257Z,6.50
2018-01-11T02:15:38.159Z,5.50
2018-01-11T02:18:05.661Z,6.10
2018-01-11T02:20:33.175Z,7.20
2018-01-11T02:23:00.722Z,6.20
2018-01-11T02:25:28.253Z,6.57
2018-01-11T02:27:55.877Z,5.35
2018-01-11T02:30:23.391Z,6.50
2018-01-11T02:32:50.906Z,6.43
2018-01-11T02:35:18.446Z,7.05
2018-01-11T02:37:46.018Z,7.20
2018-01-11T02:40:13.543Z,7.12
2018-01-11T02:42:41.294Z,6.70
2018-01-11T02:45:08.801Z,6.55
2018-01-11T02:47:36.305Z,6.30
2018-01-11T02:50:04.087Z,6.22
2018-01-11T02:52:31.656Z,5.50
2018-01-11T02:54:59.205Z,5.82
2018-01-11T02:57:26.751Z,5.65
2018-01-11T02:59:54.270Z,6.57
2018-01-11T03:02:21.958Z,5.97
2018-01-11T03:04:49.543Z,5.12
2018-01-11T03:07:17.049Z,6.10
2018-01-11T03:09:44.590Z,6.68
2018-01-11T03:12:12.118Z,5.45
2018-01-11T03:14:39.997Z,6.30
2018-01-11T03:17:07.545Z,6.60
2018-01-11T03:19:35.054Z,8.10
2018-01-11T03:22:02.595Z,8.48
2018-01-11T03:24:30.119Z,7.65
2018-01-11T03:26:57.683Z,7.20
2018-01-11T03:29:25.192Z,7.55
2018-01-11T03:31:52.701Z,6.93
2018-01-11T03:34:20.235Z,7.20
2018-01-11T03:36:47.885Z,7.05
2018-01-11T03:39:15.388Z,7.75
2018-01-11T03:41:42.901Z,8.45
2018-01-11T03:44:10.436Z,7.95
2018-01-11T03:46:37.946Z,9.15
2018-01-11T03:49:05.786Z,9.77
2018-01-11T03:51:33.297Z,8.27
2018-01-11T03:54:00.802Z,8.82
2018-01-11T03:56:28.341Z,8.32
2018-01-11T03:58:55.857Z,8.90
2018-01-11T04:01:23.400Z,9.50
2018-01-11T04:03:50.910Z,8.35
2018-01-11T04:06:18.727Z,9.00
2018-01-11T04:08:46.286Z,9.60
2018-01-11T04:11:13.794Z,9.27
2018-01-11T04:13:41.335Z,8.93
2018-01-11T04:16:08.850Z,7.82
2018-01-11T04:18:36.626Z,9.55
2018-01-11T04:21:04.184Z,10.50
2018-01-11T04:23:31.757Z,8.02
2018-01-11T04:25:59.353Z,9.48
2018-01-11T04:28:26.886Z,9.95
2018-01-11T04:30:54.623Z,9.60
2018-01-11T04:33:22.190Z,10.40
2018-01-11T04:35:49.745Z,9.30
2018-01-11T04:38:17.302Z,8.63
2018-01-11T04:40:44.819Z,10.13
2018-01-11T04:43:12.625Z,10.30
2018-01-11T04:45:40.125Z,9.35
2018-01-11T04:48:07.641Z,9.90
2018-01-11T04:50:35.177Z,9.23
2018-01-11T04:53:02.686Z,9.00
2018-01-11T04:55:30.376Z,8.07
2018-01-11T04:57:57.898Z,8.20
2018-01-11T05:00:25.410Z,8.20
2018-01-11T05:02:52.946Z,8.32
2018-01-11T05:05:20.964Z,7.75
2018-01-11T05:07:48.508Z,8.27
2018-01-11T05:10:16.013Z,8.55
2018-01-11T05:12:43.557Z,9.90
2018-01-11T05:15:11.100Z,8.45
2018-01-11T05:17:38.658Z,8.88
2018-01-11T05:20:06.230Z,9.20
2018-01-11T05:22:33.776Z,8.50
2018-01-11T05:25:01.291Z,7.75
2018-01-11T05:27:28.846Z,9.18
2018-01-11T05:29:56.361Z,7.55
2018-01-11T05:32:24.118Z,8.90
2018-01-11T05:34:51.858Z,7.68
2018-01-11T05:37:19.358Z,7.65
2018-01-11T05:39:46.868Z,8.63
2018-01-11T05:42:14.538Z,7.15
2018-01-11T05:44:42.042Z,8.25
2018-01-11T05:47:09.550Z,6.70
2018-01-11T05:49:37.235Z,7.60
2018-01-11T05:52:04.739Z,7.28
2018-01-11T05:54:32.250Z,6.95
2018-01-11T05:56:59.808Z,7.15
2018-01-11T05:59:27.370Z,7.53
2018-01-11T06:01:54.934Z,6.90
2018-01-11T06:04:22.793Z,6.82
2018-01-11T06:06:50.298Z,7.45
2018-01-11T06:09:17.842Z,7.05
2018-01-11T06:11:45.692Z,5.62
2018-01-11T06:14:13.233Z,6.22
2018-01-11T06:16:40.741Z,6.30
2018-01-11T06:19:08.433Z,6.30
2018-01-11T06:21:35.938Z,7.93
2018-01-11T06:24:03.449Z,7.70
2018-01-11T06:26:30.985Z,7.12
2018-01-11T06:28:58.501Z,6.75
2018-01-11T06:31:26.250Z,6.80
2018-01-11T06:33:53.762Z,7.40
2018-01-11T06:36:21.273Z,8.45
2018-01-11T06:38:48.825Z,8.88
2018-01-11T06:41:16.385Z,7.32
2018-01-11T06:43:43.935Z,7.72
2018-01-11T06:46:11.441Z,7.57
2018-01-11T06:48:38.951Z,7.20
2018-01-11T06:51:06.498Z,7.90
2018-01-11T06:53:34.003Z,7.97
2018-01-11T06:56:01.738Z,6.85
2018-01-11T06:58:29.298Z,7.85
2018-01-11T07:00:56.857Z,8.52
2018-01-11T07:03:24.419Z,9.20
2018-01-11T07:05:51.980Z,7.80
2018-01-11T07:08:19.537Z,8.25
2018-01-11T07:10:47.056Z,8.70
2018-01-11T07:13:14.626Z,8.52
2018-01-11T07:15:42.131Z,8.95
2018-01-11T07:18:09.666Z,8.18
2018-01-11T07:20:37.239Z,7.93
2018-01-11T07:23:04.787Z,7.28
2018-01-11T07:25:32.347Z,8.65
2018-01-11T07:27:59.904Z,9.40
2018-01-11T07:30:27.473Z,8.43
2018-01-11T07:32:55.065Z,9.23
2018-01-11T07:35:22.579Z,9.10
2018-01-11T07:37:50.122Z,9.73
2018-01-11T07:40:17.657Z,9.93
2018-01-11T07:42:45.166Z,9.70
2018-01-11T07:45:13.003Z,9.50
2018-01-11T07:47:40.510Z,9.60
2018-01-11T07:50:08.030Z,11.20
2018-01-11T07:52:35.928Z,10.43
2018-01-11T07:55:03.506Z,9.95
2018-01-11T07:57:31.013Z,8.93
2018-01-11T07:59:58.787Z,11.45
2018-01-11T08:02:26.297Z,9.30
2018-01-11T08:04:53.803Z,9.27
2018-01-11T08:07:21.364Z,9.63
2018-01-11T08:09:48.882Z,10.13
2018-01-11T08:12:16.688Z,9.50
2018-01-11T08:14:44.202Z,10.20
2018-01-11T08:17:11.709Z,9.00
2018-01-11T08:19:39.260Z,9.23
2018-01-11T08:22:06.766Z,8.50
2018-01-11T08:24:35.083Z,9.73
2018-01-11T08:27:02.635Z,9.95
2018-01-11T08:29:30.142Z,9.63
2018-01-11T08:31:57.658Z,10.35
2018-01-11T08:34:25.208Z,10.40
2018-01-11T08:36:52.714Z,8.80
2018-01-11T08:39:20.225Z,9.80
2018-01-11T08:41:47.806Z,10.32
2018-01-11T08:44:15.631Z,9.65
2018-01-11T08:46:43.294Z,8.90
2018-01-11T08:49:10.905Z,9.10
2018-01-11T08:51:38.452Z,8.07
2018-01-11T08:54:06.010Z,11.98
2018-01-11T08:56:33.578Z,9.20
2018-01-11T08:59:01.094Z,8.32
2018-01-11T09:01:28.611Z,9.23
2018-01-11T09:03:56.186Z,8.88
2018-01-11T09:06:23.698Z,9.23
2018-01-11T09:08:51.211Z,9.05
2018-01-11T09:11:18.758Z,7.28
2018-01-11T09:13:46.278Z,9.10
2018-01-11T09:16:13.838Z,8.40
2018-01-11T09:18:41.397Z,9.48
2018-01-11T09:21:08.958Z,8.32
2018-01-11T09:23:37.335Z,8.50
2018-01-11T09:26:04.908Z,8.18
2018-01-11T09:28:32.454Z,8.75
2018-01-11T09:31:00.040Z,9.45
2018-01-11T09:33:27.602Z,8.40
2018-01-11T09:35:55.134Z,7.75
2018-01-11T09:38:22.690Z,8.75
2018-01-11T09:40:50.233Z,7.90
2018-01-11T09:43:17.827Z,11.13
2018-01-11T09:45:45.366Z,10.60
2018-01-11T09:48:12.929Z,11.20
2018-01-11T09:50:41.408Z,8.60
2018-01-11T09:53:08.992Z,9.73
2018-01-11T09:55:36.525Z,9.88
2018-01-11T09:58:04.085Z,10.27
2018-01-11T10:00:31.634Z,10.15
2018-01-11T10:02:59.203Z,10.27
2018-01-11T10:05:26.762Z,9.45
2018-01-11T10:07:54.329Z,10.30
2018-01-11T10:10:21.880Z,10.77
2018-01-11T10:12:49.440Z,11.43
2018-01-11T10:15:17.004Z,9.32
2018-01-11T10:17:44.966Z,9.10
2018-01-11T10:20:12.527Z,10.48
2018-01-11T10:22:40.098Z,9.00
2018-01-11T10:25:07.833Z,11.00
2018-01-11T10:27:35.412Z,10.25
2018-01-11T10:30:02.978Z,10.70
2018-01-11T10:32:30.527Z,9.20
2018-01-11T10:34:58.037Z,9.40
2018-01-11T10:37:25.953Z,8.50
2018-01-11T10:39:53.512Z,8.30
2018-01-11T10:42:21.071Z,8.20
2018-01-11T10:44:48.621Z,9.00
2018-01-11T10:47:16.139Z,9.40
2018-01-11T10:49:43.650Z,8.93
2018-01-11T10:52:11.221Z,9.33
2018-01-11T10:54:39.071Z,8.97
2018-01-11T10:57:06.581Z,8.63
2018-01-11T10:59:34.394Z,8.30
2018-01-11T11:02:07.393Z,9.30
2018-01-11T11:04:34.939Z,9.43
2018-01-11T11:07:02.497Z,7.77
2018-01-11T11:09:30.709Z,7.70
2018-01-11T11:11:58.261Z,8.03
2018-01-11T11:14:25.777Z,8.10
2018-01-11T11:16:53.281Z,9.20
2018-01-11T11:19:20.825Z,7.70
2018-01-11T11:21:48.413Z,6.57
2018-01-11T11:24:16.058Z,8.07
2018-01-11T11:26:43.775Z,7.37
2018-01-11T11:29:11.282Z,7.50
2018-01-11T11:31:38.910Z,8.00
2018-01-11T11:34:06.653Z,7.90
2018-01-11T11:36:34.172Z,7.53
2018-01-11T11:39:01.698Z,6.23
2018-01-11T11:41:30.233Z,6.20
2018-01-11T11:43:57.743Z,6.43
2018-01-11T11:46:25.288Z,6.23
2018-01-11T11:48:52.863Z,6.30
2018-01-11T11:51:20.406Z,5.93
2018-01-11T11:53:47.923Z,7.03
2018-01-11T11:56:16.447Z,6.63
2018-01-11T11:58:44.295Z,8.00
2018-01-11T12:01:11.805Z,6.80
2018-01-11T12:03:39.533Z,7.57
2018-01-11T12:06:07.050Z,6.83
2018-01-11T12:08:34.566Z,7.00
2018-01-11T12:11:02.110Z,7.43
2018-01-11T12:13:29.669Z,8.80
2018-01-11T12:15:57.215Z,8.80
2018-01-11T12:18:24.725Z,9.77
2018-01-11T12:20:52.266Z,9.97
2018-01-11T12:23:19.851Z,10.40
2018-01-11T12:25:48.198Z,9.70
2018-01-11T12:28:15.726Z,10.00
2018-01-11T12:30:43.403Z,9.80
2018-01-11T12:33:10.970Z,10.93
2018-01-11T12:35:38.522Z,11.40
2018-01-11T12:38:06.113Z,10.83
2018-01-11T12:40:33.638Z,9.80
2018-01-11T12:43:01.159Z,9.30
2018-01-11T12:45:29.167Z,11.10
2018-01-11T12:47:56.737Z,11.77
2018-01-11T12:50:24.432Z,11.93
2018-01-11T12:52:51.990Z,12.63
2018-01-11T12:55:19.614Z,12.23
2018-01-11T12:57:47.269Z,12.13
2018-01-11T13:00:14.839Z,13.40
2018-01-11T13:02:42.592Z,14.47
2018-01-11T13:05:10.154Z,11.57
2018-01-11T13:07:38.119Z,13.00
2018-01-11T13:10:05.679Z,12.43
2018-01-11T13:12:33.800Z,12.20
2018-01-11T13:15:01.514Z,13.10
2018-01-11T13:17:29.375Z,12.40
2018-01-11T13:19:56.887Z,9.50
2018-01-11T13:22:24.602Z,10.57
2018-01-11T13:24:52.263Z,9.23
2018-01-11T13:27:19.774Z,7.00
2018-01-11T13:29:47.432Z,7.87
2018-01-11T13:32:15.774Z,7.43
2018-01-11T13:34:43.360Z,9.52
2018-01-11T13:37:10.935Z,7.70
2018-01-11T13:39:38.461Z,10.13
2018-01-11T13:42:06.018Z,11.07
2018-01-11T13:44:33.546Z,10.57
2018-01-11T13:47:01.306Z,9.35
2018-01-11T13:49:28.829Z,10.85
2018-01-11T13:51:56.363Z,11.23
2018-01-11T13:54:24.201Z,10.25
2018-01-11T13:56:51.760Z,9.00
2018-01-11T13:59:19.361Z,7.15
2018-01-11T14:01:47.186Z,7.90
2018-01-11T14:04:14.745Z,11.00
2018-01-11T14:06:42.510Z,9.98
2018-01-11T14:09:10.375Z,7.12
2018-01-11T14:11:38.220Z,9.50
2018-01-11T14:14:05.742Z,7.07
2018-01-11T14:16:33.668Z,6.60
2018-01-11T14:19:01.189Z,5.65
2018-01-11T14:21:28.714Z,6.70
2018-01-11T14:23:56.754Z,6.05
2018-01-11T14:26:24.694Z,6.68
2018-01-11T14:28:52.284Z,7.75
2018-01-11T14:31:19.977Z,7.93
2018-01-11T14:33:48.425Z,8.13
2018-01-11T14:36:15.950Z,6.55
2018-01-11T14:38:43.544Z,6.90
2018-01-11T14:41:11.108Z,7.15
2018-01-11T14:43:38.617Z,8.35
2018-01-11T14:46:06.529Z,8.55
2018-01-11T14:48:34.048Z,9.00
2018-01-11T14:51:01.585Z,9.52
2018-01-11T14:53:29.153Z,10.38
2018-01-11T14:55:56.850Z,10.60
2018-01-11T14:58:24.942Z,8.50
2018-01-11T15:00:52.905Z,8.48
2018-01-11T15:03:20.449Z,9.35
2018-01-11T15:05:48.026Z,7.78
2018-01-11T15:08:15.605Z,8.70
2018-01-11T15:10:43.143Z,8.23
2018-01-11T15:13:10.867Z,8.02
2018-01-11T15:15:38.671Z,9.07
2018-01-11T15:18:06.281Z,8.98
2018-01-11T15:20:34.292Z,8.77
2018-01-11T15:23:02.475Z,8.30
2018-01-11T15:25:30.036Z,7.62
2018-01-11T15:27:57.614Z,8.18
2018-01-11T15:30:25.357Z,8.88
2018-01-11T15:32:52.959Z,8.20
2018-01-11T15:35:20.530Z,9.68
2018-01-11T15:37:48.091Z,10.50
2018-01-11T15:40:16.106Z,9.82
2018-01-11T15:42:43.683Z,14.90
2018-01-11T15:45:12.158Z,23.15
2018-01-11T15:47:39.706Z,13.10
2018-01-11T15:50:08.093Z,10.98
2018-01-11T15:52:35.921Z,10.50
2018-01-11T15:55:03.443Z,8.77
2018-01-11T15:57:31.066Z,10.27
2018-01-11T15:59:59.020Z,9.18
2018-01-11T16:02:26.537Z,9.30
2018-01-11T16:04:54.052Z,8.95
2018-01-11T16:07:21.920Z,9.25
2018-01-11T16:09:49.788Z,8.80
2018-01-11T16:12:17.368Z,7.82
2018-01-11T16:14:45.211Z,8.07
2018-01-11T16:17:12.806Z,9.20
2018-01-11T16:19:40.313Z,8.50
2018-01-11T16:22:08.604Z,8.43
2018-01-11T16:24:36.192Z,9.02
2018-01-11T16:27:03.715Z,7.90
2018-01-11T16:29:31.692Z,9.38
2018-01-11T16:31:59.199Z,9.55
2018-01-11T16:34:26.729Z,9.82
2018-01-11T16:36:54.592Z,8.70
2018-01-11T16:39:22.113Z,11.00
2018-01-11T16:41:49.631Z,10.95
2018-01-11T16:44:17.642Z,12.25
2018-01-11T16:46:45.222Z,12.13
2018-01-11T16:49:12.783Z,16.92
2018-01-11T16:51:40.653Z,15.23
2018-01-11T16:54:08.718Z,13.35
2018-01-11T16:56:37.254Z,13.43
2018-01-11T16:59:05.887Z,14.13
2018-01-11T17:01:33.561Z,12.73
2018-01-11T17:04:01.123Z,13.27
2018-01-11T17:06:28.683Z,11.48
2018-01-11T17:08:56.224Z,12.07
2018-01-11T17:11:23.885Z,12.80
2018-01-11T17:13:52.059Z,13.00
2018-01-11T17:16:19.643Z,28.40
2018-01-11T17:18:47.177Z,13.90
2018-01-11T17:21:14.736Z,14.63
2018-01-11T17:23:42.398Z,14.82
2018-01-11T17:26:10.008Z,15.20
2018-01-11T17:28:37.833Z,15.02
2018-01-11T17:31:05.389Z,14.20
2018-01-11T17:33:32.942Z,17.15
2018-01-11T17:36:00.509Z,16.17
2018-01-11T17:38:28.023Z,17.60
2018-01-11T17:40:55.722Z,18.95
2018-01-11T17:43:23.793Z,20.60
2018-01-11T17:45:51.454Z,20.50
2018-01-11T17:48:19.043Z,20.85
2018-01-11T17:50:46.613Z,21.52
2018-01-11T17:53:14.141Z,27.55
2018-01-11T17:55:41.802Z,21.85
2018-01-11T17:58:09.549Z,22.62
2018-01-11T18:00:37.071Z,26.35
2018-01-11T18:03:04.923Z,29.42
2018-01-11T18:05:33.157Z,30.37
2018-01-11T18:08:01.332Z,27.25
2018-01-11T18:10:29.234Z,27.27
2018-01-11T18:12:56.961Z,28.40
2018-01-11T18:15:24.520Z,25.75
2018-01-11T18:17:52.183Z,25.00
2018-01-11T18:20:19.844Z,23.45
2018-01-11T18:22:47.571Z,27.15
2018-01-11T18:25:15.166Z,25.52
2018-01-11T18:27:42.815Z,23.77
2018-01-11T18:30:11.231Z,25.98
2018-01-11T18:32:38.814Z,24.48
2018-01-11T18:35:06.692Z,23.85
2018-01-11T18:37:34.338Z,26.40
2018-01-11T18:40:01.874Z,28.20
2018-01-11T18:42:29.923Z,27.42
2018-01-11T18:44:57.689Z,29.87
2018-01-11T18:47:25.871Z,26.17
2018-01-11T18:49:53.829Z,25.17
2018-01-11T18:52:21.697Z,27.17
2018-01-11T18:54:49.358Z,24.37
2018-01-11T18:57:17.873Z,26.50
2018-01-11T18:59:45.601Z,24.98
2018-01-11T19:02:13.378Z,24.67
2018-01-11T19:04:41.182Z,24.00
2018-01-11T19:07:08.898Z,26.08
2018-01-11T19:09:36.760Z,26.55
2018-01-11T19:12:04.522Z,25.45
2018-01-11T19:14:32.302Z,27.08
2018-01-11T19:17:00.078Z,27.30
2018-01-11T19:19:28.339Z,26.60
2018-01-11T19:21:56.092Z,26.42
2018-01-11T19:24:23.816Z,25.92
2018-01-11T19:26:52.030Z,26.83
2018-01-11T19:29:19.641Z,26.50
2018-01-11T19:31:47.455Z,28.73
2018-01-11T19:34:15.527Z,28.50
2018-01-11T19:36:43.396Z,27.50
2018-01-11T19:39:11.160Z,27.10
2018-01-11T19:41:39.843Z,27.80
2018-01-11T19:44:07.614Z,28.45
2018-01-11T19:46:35.371Z,27.30
2018-01-11T19:49:03.356Z,28.08
2018-01-11T19:51:30.960Z,28.65
2018-01-11T19:53:58.764Z,29.48
2018-01-11T19:56:27.143Z,28.50
2018-01-11T19:58:56.564Z,29.87
2018-01-11T20:01:24.280Z,27.45
2018-01-11T20:03:52.373Z,28.55
2018-01-11T20:06:20.638Z,27.85
2018-01-11T20:08:48.467Z,26.52
2018-01-11T20:11:16.348Z,25.75
2018-01-11T20:13:44.164Z,26.37
2018-01-11T20:16:11.932Z,26.45
2018-01-11T20:18:39.996Z,27.23
2018-01-11T20:21:07.856Z,26.85
2018-01-11T20:23:36.137Z,25.08
2018-01-11T20:26:04.408Z,27.00
2018-01-11T20:28:32.241Z,27.08
2018-01-11T20:31:00.446Z,24.60
2018-01-11T20:33:28.704Z,28.23
2018-01-11T20:35:56.491Z,25.88
2018-01-11T20:38:24.206Z,27.05
2018-01-11T20:40:52.134Z,23.67
2018-01-11T20:43:19.984Z,21.83
2018-01-11T20:45:48.687Z,25.73
2018-01-11T20:48:17.884Z,24.58
2018-01-11T20:50:45.842Z,25.27
2018-01-11T20:53:14.559Z,25.62
2018-01-11T20:55:42.397Z,25.50
2018-01-11T20:58:10.254Z,22.27
2018-01-11T21:00:38.225Z,24.63
2018-01-11T21:03:06.101Z,24.20
2018-01-11T21:05:33.853Z,23.15
2018-01-11T21:08:01.738Z,23.75
2018-01-11T21:10:29.497Z,22.15
2018-01-11T21:12:57.342Z,22.00
2018-01-11T21:15:26.139Z,23.60
2018-01-11T21:17:53.922Z,21.70
2018-01-11T21:20:21.739Z,22.92
2018-01-11T21:22:50.529Z,22.42
2018-01-11T21:25:18.536Z,24.15
2018-01-11T21:27:46.308Z,21.85
2018-01-11T21:30:14.047Z,21.98
2018-01-11T21:32:41.832Z,21.35
2018-01-11T21:35:09.589Z,23.52
2018-01-11T21:37:39.086Z,21.30
2018-01-11T21:40:06.969Z,21.35
2018-01-11T21:42:36.260Z,21.92
2018-01-11T21:45:04.016Z,21.85
2018-01-11T21:47:31.785Z,21.48
2018-01-11T21:49:59.515Z,23.42
2018-01-11T21:52:27.226Z,21.55
2018-01-11T21:54:54.949Z,23.45
2018-01-11T21:57:22.462Z,23.33
2018-01-11T21:59:50.179Z,24.20
2018-01-11T22:02:18.177Z,21.10
2018-01-11T22:04:45.749Z,22.40
2018-01-11T22:07:13.266Z,18.98
2018-01-11T22:09:40.939Z,21.33
2018-01-11T22:12:08.455Z,20.88
2018-01-11T22:14:35.975Z,21.30
2018-01-11T22:17:03.705Z,23.02
2018-01-11T22:19:31.227Z,22.75
2018-01-11T22:21:58.749Z,24.27
2018-01-11T22:24:26.322Z,22.60
2018-01-11T22:26:53.923Z,22.80
2018-01-11T22:29:21.634Z,21.80
2018-01-11T22:31:49.390Z,25.12
2018-01-11T22:34:16.942Z,21.17
2018-01-11T22:36:44.505Z,22.60
2018-01-11T22:39:12.265Z,24.15
2018-01-11T22:41:39.825Z,26.50
2018-01-11T22:44:07.385Z,25.23
2018-01-11T22:46:34.942Z,22.42
2018-01-11T22:49:02.523Z,23.20
2018-01-11T22:51:30.065Z,22.85
2018-01-11T22:53:57.645Z,23.05
2018-01-11T22:56:25.162Z,23.20
2018-01-11T22:58:52.672Z,25.60
2018-01-11T23:01:20.400Z,22.55
2018-01-11T23:03:47.914Z,26.52
2018-01-11T23:06:15.425Z,24.77
2018-01-11T23:08:43.162Z,23.95
2018-01-11T23:11:10.678Z,22.48
2018-01-11T23:13:38.194Z,22.92
2018-01-11T23:16:05.937Z,24.65
2018-01-11T23:18:33.622Z,22.08
2018-01-11T23:21:01.138Z,22.77
2018-01-11T23:23:28.740Z,22.52
2018-01-11T23:25:56.298Z,23.20
2018-01-11T23:28:23.814Z,23.25
2018-01-11T23:30:51.520Z,21.45
2018-01-11T23:33:19.033Z,19.90
2018-01-11T23:35:46.550Z,22.92
2018-01-11T23:38:14.299Z,23.00
2018-01-11T23:40:42.473Z,20.80
2018-01-11T23:43:09.982Z,23.12
2018-01-11T23:45:37.590Z,21.40
2018-01-11T23:48:05.098Z,21.60
2018-01-11T23:50:32.606Z,22.23
2018-01-11T23:53:00.178Z,22.58
2018-01-11T23:55:27.726Z,21.27
2018-01-11T23:57:55.234Z,26.35
